Time;durP1;ratioP1;P1;durP2;ratioP2;P2;SDS_P1;SDS_P2;PMS_P1;PMS_P2;Temp;Humidity;BMP_temperature;BMP_pressure;BME280_temperature;BME280_humidity;BME280_pressure;Samples;Min_cycle;Max_cycle;Signal;HPM_P1;HPM_P2
2022/08/12 00:44:26;;;;;;;;;;;;;;;-142.75;100.00;76708.09;5012975;28;19919;-69
2022/08/12 00:47:00;;;;;;;;;;;;;;;-142.75;100.00;76704.16;5012215;28;19914;-69
2022/08/12 00:49:29;;;;;;;;;;;;;;;-142.75;100.00;76704.16;4994895;28;20291;-69
2022/08/12 00:52:05;;;;;;;;;;;;;;;-142.75;100.00;76702.19;4994936;28;19914;-69
2022/08/12 00:54:30;;;;;;;;;;;;;;;-142.75;100.00;76698.25;5006749;28;20055;-70
2022/08/12 00:56:57;;;;;;;;;;;;;;;-142.75;100.00;76692.34;5011179;28;19969;-70
2022/08/12 00:59:23;;;;;;;;;;;;;;;-142.75;100.00;76698.25;5012267;28;19920;-69
2022/08/12 01:01:49;;;;;;;;;;;;;;;-142.75;100.00;76706.13;5010786;28;19918;-70
2022/08/12 01:12:31;;;;;;;;;;;;;;;-142.75;100.00;76721.88;5012815;28;19920;-69
2022/08/12 01:14:56;;;;;;;;;;;;;;;-142.75;100.00;76719.91;4994500;28;19914;-69
2022/08/12 01:17:22;;;;;;;;;;;;;;;-142.75;100.00;76714.00;4993894;28;19918;-69
2022/08/12 01:19:51;;;;;;;;;;;;;;;-142.75;100.00;76719.91;5012098;28;19920;-69
2022/08/12 01:22:24;;;;;;;;;;;;;;;-142.75;100.00;76731.72;5012987;28;19920;-69
2022/08/12 01:24:57;;;;;;;;;;;;;;;-142.75;100.00;76739.59;4995491;28;19933;-70
2022/08/12 01:27:23;;;;;;;;;;;;;;;-142.75;100.00;76745.50;5011860;28;20469;-69
2022/08/12 01:29:50;;;;;;;;;;;;;;;-142.75;100.00;76763.22;5012106;28;19937;-69
2022/08/12 01:32:17;;;;;;;;;;;;;;;-142.75;100.00;76782.91;5012125;28;20345;-69
2022/08/12 01:34:53;;;;;;;;;;;;;;;-142.75;100.00;76790.78;5012091;28;19957;-69
2022/08/12 01:37:21;;;;;;;;;;;;;;;-142.75;100.00;76806.50;5012104;28;19918;-70
2022/08/12 01:39:53;;;;;;;;;;;;;;;-142.75;100.00;76814.38;5012041;28;19913;-69
2022/08/12 01:42:20;;;;;;;;;;;;;;;-142.75;100.00;76824.22;5011961;28;19996;-69
2022/08/12 01:44:47;;;;;;;;;;;;;;;-142.75;100.00;76830.13;5012065;28;20350;-69
2022/08/12 01:47:31;;;;;;;;;;;;;;;-142.75;100.00;76839.97;5011570;28;19953;-69
2022/08/12 01:49:57;;;;;;;;;;;;;;;-142.75;100.00;76830.13;5011950;28;19917;-69
2022/08/12 01:52:42;;;;;;;;;;;;;;;-142.75;100.00;76830.13;5015054;28;20334;-69
2022/08/12 01:55:08;;;;;;;;;;;;;;;-142.75;100.00;76818.31;5015440;28;19917;-69
2022/08/12 01:57:46;;;;;;;;;;;;;;;-142.75;100.00;76804.53;5014819;28;20012;-69
2022/08/12 02:00:13;;;;;;;;;;;;;;;-142.75;100.00;76794.69;5015324;28;20272;-69
2022/08/12 02:02:40;;;;;;;;;;;;;;;-142.75;100.00;76790.78;5013997;28;19913;-69
2022/08/12 02:11:17;;;;;;;;;;;;;;;-142.75;100.00;76775.03;5015458;28;19919;-70
2022/08/12 02:13:45;;;;;;;;;;;;;;;-142.75;100.00;76765.19;5015114;28;19920;-69
2022/08/12 02:16:26;;;;;;;;;;;;;;;-142.75;100.00;76769.13;4997311;28;19917;-70
2022/08/12 02:19:15;;;;;;;;;;;;;;;-142.75;100.00;76771.09;4997167;28;19917;-70
2022/08/12 02:21:50;;;;;;;;;;;;;;;-142.75;100.00;76771.09;5013734;28;19959;-69
2022/08/12 02:24:18;;;;;;;;;;;;;;;-142.75;100.00;76775.03;4997878;28;19913;-69
2022/08/12 02:26:45;;;;;;;;;;;;;;;-142.75;100.00;76773.06;5015515;28;19917;-69
2022/08/12 02:29:11;;;;;;;;;;;;;;;-142.75;100.00;76773.06;5015726;28;19921;-69
2022/08/12 02:31:37;;;;;;;;;;;;;;;-142.75;100.00;76767.16;5014094;28;19961;-69
2022/08/12 02:34:02;;;;;;;;;;;;;;;-142.75;100.00;76769.13;5014760;28;19959;-70
2022/08/12 02:36:28;;;;;;;;;;;;;;;-142.75;100.00;76782.91;5014364;28;19925;-70
2022/08/12 02:38:54;;;;;;;;;;;;;;;-142.75;100.00;76786.84;5014411;28;19921;-70
2022/08/12 02:41:20;;;;;;;;;;;;;;;-142.75;100.00;76792.75;5014555;28;19967;-70
2022/08/12 02:43:49;;;;;;;;;;;;;;;-142.75;100.00;76802.56;5014461;28;19920;-69
2022/08/12 02:46:18;;;;;;;;;;;;;;;-142.75;100.00;76810.44;5014329;28;19913;-70
2022/08/12 02:48:51;;;;;;;;;;;;;;;-142.75;100.00;76806.50;5014202;28;20347;-70
2022/08/12 02:51:19;;;;;;;;;;;;;;;-142.75;100.00;76806.50;5014380;28;19913;-69
2022/08/12 02:53:45;;;;;;;;;;;;;;;-142.75;100.00;76804.53;5014392;28;19920;-70
2022/08/12 02:56:11;;;;;;;;;;;;;;;-142.75;100.00;76800.63;5013865;28;19918;-70
2022/08/12 02:58:37;;;;;;;;;;;;;;;-142.75;100.00;76798.66;5013978;28;20276;-69
2022/08/12 03:01:03;;;;;;;;;;;;;;;-142.75;100.00;76794.69;5014173;28;20363;-70
2022/08/12 03:03:30;;;;;;;;;;;;;;;-142.75;100.00;76794.69;5013430;28;19913;-70
2022/08/12 03:05:59;;;;;;;;;;;;;;;-142.75;100.00;76788.81;5013892;28;20291;-69
2022/08/12 03:08:29;;;;;;;;;;;;;;;-142.75;100.00;76782.91;5013692;28;19913;-70
2022/08/12 03:10:58;;;;;;;;;;;;;;;-142.75;100.00;76798.66;5013981;28;19921;-69
2022/08/12 03:13:25;;;;;;;;;;;;;;;-142.75;100.00;76794.69;5013932;28;20438;-70
2022/08/12 03:15:52;;;;;;;;;;;;;;;-142.75;100.00;76800.63;5012554;28;19924;-70
2022/08/12 03:18:26;;;;;;;;;;;;;;;-142.75;100.00;76800.63;5013467;28;20505;-69
2022/08/12 03:20:52;;;;;;;;;;;;;;;-142.75;100.00;76800.63;5013876;28;19919;-70
2022/08/12 03:23:20;;;;;;;;;;;;;;;-142.75;100.00;76800.63;5013759;28;20004;-68
2022/08/12 03:25:46;;;;;;;;;;;;;;;-142.75;100.00;76814.38;5013738;28;19957;-67
2022/08/12 03:28:48;;;;;;;;;;;;;;;-142.75;100.00;76820.28;5013344;28;20000;-69
2022/08/12 03:31:01;;;;;;;;;;;;;;;-142.75;100.00;76822.25;5013497;28;19914;-69
2022/08/12 03:33:26;;;;;;;;;;;;;;;-142.75;100.00;76822.25;5013616;28;19913;-69
2022/08/12 03:35:53;;;;;;;;;;;;;;;-142.75;100.00;76834.06;4995836;28;19918;-69
2022/08/12 03:38:22;;;;;;;;;;;;;;;-142.75;100.00;76818.31;5011875;28;19921;-69
2022/08/12 04:00:23;;;;;;;;;;;;;;;-142.75;100.00;76820.28;5011663;28;19980;-62
2022/08/12 04:02:54;;;;;;;;;;;;;;;-142.75;100.00;76814.38;5012733;28;19929;-62
2022/08/12 04:05:20;;;;;;;;;;;;;;;-142.75;100.00;76814.38;5013282;28;19975;-62
2022/08/12 04:07:45;;;;;;;;;;;;;;;-142.75;100.00;76814.38;5012750;28;20326;-62
2022/08/12 04:10:11;;;;;;;;;;;;;;;-142.75;100.00;76804.53;5010559;28;20181;-62
2022/08/12 04:15:24;;;;;;;;;;;;;;;-142.75;100.00;76800.63;5012933;28;19971;-62
2022/08/12 04:17:50;;;;;;;;;;;;;;;-142.75;100.00;76798.66;5012310;28;19968;-62
2022/08/12 04:20:17;;;;;;;;;;;;;;;-142.75;100.00;76788.81;5012594;28;19913;-63
2022/08/12 04:22:43;;;;;;;;;;;;;;;-142.75;100.00;76778.97;5012656;28;19967;-62
2022/08/12 04:25:09;;;;;;;;;;;;;;;-142.75;100.00;76778.97;4994914;28;20004;-62
2022/08/12 04:27:35;;;;;;;;;;;;;;;-142.75;100.00;76775.03;5012245;28;19921;-62
2022/08/12 04:30:00;;;;;;;;;;;;;;;-142.75;100.00;76775.03;5012404;28;19914;-62
2022/08/12 04:32:25;;;;;;;;;;;;;;;-142.75;100.00;76773.06;5010831;28;20004;-62
2022/08/12 04:34:51;;;;;;;;;;;;;;;-142.75;100.00;76778.97;5010862;28;20299;-62
2022/08/12 04:37:16;;;;;;;;;;;;;;;-142.75;100.00;76782.91;5011580;28;19925;-62
2022/08/12 04:39:43;;;;;;;;;;;;;;;-142.75;100.00;76790.78;5012576;28;19918;-62
2022/08/12 04:42:08;;;;;;;;;;;;;;;-142.75;100.00;76796.69;5012582;28;20324;-62
2022/08/12 04:44:33;;;;;;;;;;;;;;;-142.75;100.00;76794.69;5012433;28;20008;-62
2022/08/12 04:46:59;;;;;;;;;;;;;;;-142.75;100.00;76786.84;5012120;28;19920;-62
2022/08/12 04:49:24;;;;;;;;;;;;;;;-142.75;100.00;76798.66;5012498;28;19949;-62
2022/08/12 04:51:50;;;;;;;;;;;;;;;-142.75;100.00;76792.75;5012487;28;19913;-62
2022/08/12 04:54:15;;;;;;;;;;;;;;;-142.75;100.00;76806.50;5012446;28;19918;-62
2022/08/12 04:56:40;;;;;;;;;;;;;;;-142.75;100.00;76820.28;5011822;28;19917;-62
2022/08/12 04:59:06;;;;;;;;;;;;;;;-142.75;100.00;76838.00;5012348;28;19920;-62
2022/08/12 05:01:31;;;;;;;;;;;;;;;-142.75;100.00;76845.88;5012294;28;19968;-62
2022/08/12 05:03:57;;;;;;;;;;;;;;;-142.75;100.00;76851.78;5012394;28;20268;-62
2022/08/12 05:06:24;;;;;;;;;;;;;;;-142.75;100.00;76853.75;5012296;28;20004;-62
2022/08/12 05:08:50;;;;;;;;;;;;;;;-142.75;100.00;76834.06;5012040;28;20283;-62
2022/08/12 05:11:15;;;;;;;;;;;;;;;-142.75;100.00;76822.25;5012266;28;19920;-62
2022/08/12 05:13:42;;;;;;;;;;;;;;;-142.75;100.00;76810.44;5012240;28;20012;-62
2022/08/12 05:16:08;;;;;;;;;;;;;;;-142.75;100.00;76798.66;4994521;28;20433;-62
2022/08/12 05:18:34;;;;;;;;;;;;;;;-142.75;100.00;76777.00;5011920;28;19921;-62
2022/08/12 05:20:59;;;;;;;;;;;;;;;-142.75;100.00;76755.34;5012214;28;19948;-62
2022/08/12 05:23:25;;;;;;;;;;;;;;;-142.75;100.00;76735.66;4994582;28;20007;-62
2022/08/12 05:25:55;;;;;;;;;;;;;;;-142.75;100.00;76710.06;5013122;28;20495;-62
2022/08/12 05:28:20;;;;;;;;;;;;;;;-142.75;100.00;76692.34;5015485;28;19913;-62
2022/08/12 05:30:47;;;;;;;;;;;;;;;-142.75;100.00;76676.59;5015858;28;19921;-62
2022/08/12 05:33:14;;;;;;;;;;;;;;;-142.75;100.00;76652.97;5015666;28;20298;-62
2022/08/12 05:35:41;;;;;;;;;;;;;;;-142.75;100.00;76649.03;4998276;28;19920;-62
2022/08/12 05:40:59;;;;;;;;;;;;;;;-142.75;100.00;76611.63;5034969;28;20028;-63
2022/08/12 05:43:24;;;;;;;;;;;;;;;-142.75;100.00;76589.97;5035402;28;20406;-63
2022/08/12 05:45:50;;;;;;;;;;;;;;;-142.75;100.00;76576.19;5035446;28;19956;-63
2022/08/12 05:48:15;;;;;;;;;;;;;;;-142.75;100.00;76554.53;5034959;28;19959;-63
2022/08/12 05:50:40;;;;;;;;;;;;;;;-142.75;100.00;76542.72;5035331;28;19935;-63
2022/08/12 05:53:06;;;;;;;;;;;;;;;-142.75;100.00;76523.06;5035319;28;19914;-62
2022/08/12 05:55:31;;;;;;;;;;;;;;;-142.75;100.00;76519.13;5035140;28;20494;-63
2022/08/12 05:57:57;;;;;;;;;;;;;;;-142.75;100.00;76497.47;5034609;28;19971;-63
2022/08/12 06:00:27;;;;;;;;;;;;;;;-142.75;100.00;76473.84;5035133;28;19919;-62
2022/08/12 06:02:59;;;;;;;;;;;;;;;-142.75;100.00;76450.22;5035238;28;20337;-63
2022/08/12 06:05:25;;;;;;;;;;;;;;;-142.75;100.00;76430.53;5035129;28;19974;-63
2022/08/12 06:07:53;;;;;;;;;;;;;;;-142.75;100.00;76408.88;5034727;28;19913;-63
2022/08/12 06:10:18;;;;;;;;;;;;;;;-142.75;100.00;76406.91;5035005;28;19960;-63
2022/08/12 06:12:47;;;;;;;;;;;;;;;-142.75;100.00;76391.16;5034842;28;19964;-63
2022/08/12 06:15:13;;;;;;;;;;;;;;;-142.75;100.00;76377.38;5034857;28;19967;-63
2022/08/12 06:17:38;;;;;;;;;;;;;;;-142.75;100.00;76369.50;5034353;28;19920;-63
2022/08/12 06:20:04;;;;;;;;;;;;;;;-142.75;100.00;76349.81;5034697;28;20444;-63
2022/08/12 06:22:29;;;;;;;;;;;;;;;-142.75;100.00;76326.22;5034796;28;19913;-63
2022/08/12 06:24:54;;;;;;;;;;;;;;;-142.75;100.00;76306.53;5034677;28;20379;-63
2022/08/12 06:27:20;;;;;;;;;;;;;;;-142.75;100.00;76278.97;5034215;28;19975;-63
2022/08/12 06:29:45;;;;;;;;;;;;;;;-142.75;100.00;76255.34;5034458;28;20286;-63
2022/08/12 06:32:10;;;;;;;;;;;;;;;-142.75;100.00;76261.25;5019178;28;20058;-63
2022/08/12 06:34:36;;;;;;;;;;;;;;;-142.75;100.00;76241.56;5014650;28;20008;-63
2022/08/12 06:37:01;;;;;;;;;;;;;;;-142.75;100.00;76229.75;5013139;28;19927;-63
2022/08/12 06:39:27;;;;;;;;;;;;;;;-142.75;100.00;76200.25;5030384;28;19917;-62
2022/08/12 06:44:35;;;;;;;;;;;;;;;-142.75;100.00;76141.19;5008225;28;19940;-63
2022/08/12 06:47:01;;;;;;;;;;;;;;;-142.75;100.00;76127.41;5010112;28;20375;-63
2022/08/12 06:49:34;;;;;;;;;;;;;;;-142.75;100.00;76115.59;5014001;28;19913;-62
2022/08/12 06:51:59;;;;;;;;;;;;;;;-142.75;100.00;76097.88;5013982;28;19997;-63
2022/08/12 06:54:24;;;;;;;;;;;;;;;-142.75;100.00;76091.97;5013880;28;19953;-63
2022/08/12 06:56:51;;;;;;;;;;;;;;;-142.75;100.00;76082.13;5013364;28;19928;-63
2022/08/12 06:59:20;;;;;;;;;;;;;;;-142.75;100.00;76091.97;5013756;28;19968;-63
2022/08/12 07:01:45;;;;;;;;;;;;;;;-142.75;100.00;76050.66;4996145;28;19921;-63
2022/08/12 07:04:10;;;;;;;;;;;;;;;-142.75;100.00;76030.97;5013666;28;19913;-63
2022/08/12 07:06:35;;;;;;;;;;;;;;;-142.75;100.00;76023.09;5013296;28;19913;-63
2022/08/12 07:09:03;;;;;;;;;;;;;;;-142.75;100.00;76021.13;5013705;28;19972;-63
2022/08/12 07:11:32;;;;;;;;;;;;;;;-142.75;100.00;75969.94;5013396;28;20387;-63
2022/08/12 07:13:59;;;;;;;;;;;;;;;-142.75;100.00;75962.09;5013713;28;19921;-63
2022/08/12 07:16:50;;;;;;;;;;;;;;;-142.75;100.00;75952.25;4995741;28;20375;-63
2022/08/12 07:19:09;;;;;;;;;;;;;;;-142.75;100.00;75920.75;5010477;28;19941;-62
2022/08/12 07:21:36;;;;;;;;;;;;;;;-142.75;100.00;75908.94;5013460;28;19964;-62
2022/08/12 07:24:02;;;;;;;;;;;;;;;-142.75;100.00;75875.47;5013337;28;19925;-62
2022/08/12 07:26:28;;;;;;;;;;;;;;;-142.75;100.00;75877.44;5013237;28;19917;-63
2022/08/12 07:28:53;;;;;;;;;;;;;;;-142.75;100.00;75853.84;4994687;28;19925;-63
2022/08/12 07:31:18;;;;;;;;;;;;;;;-142.75;100.00;75818.41;4995108;28;19917;-63
2022/08/12 07:33:43;;;;;;;;;;;;;;;-142.75;100.00;75806.59;5013086;28;19952;-63
2022/08/12 07:36:10;;;;;;;;;;;;;;;-142.75;100.00;75796.75;5012855;28;19940;-62
2022/08/12 07:38:42;;;;;;;;;;;;;;;-142.75;100.00;75775.09;5012789;28;19914;-62
2022/08/12 07:41:18;;;;;;;;;;;;;;;-142.75;100.00;75735.75;5012743;28;20005;-62
2022/08/12 07:43:48;;;;;;;;;;;;;;;-142.75;100.00;75704.25;5012753;28;20495;-63
2022/08/12 07:46:15;;;;;;;;;;;;;;;-142.75;100.00;75684.56;4995087;28;19913;-64
2022/08/12 07:48:48;;;;;;;;;;;;;;;-142.75;100.00;75680.63;5012303;28;19945;-62
2022/08/12 07:51:14;;;;;;;;;;;;;;;-142.75;100.00;75670.81;5012592;28;19914;-63
2022/08/12 07:53:40;;;;;;;;;;;;;;;-142.75;100.00;75696.38;5013052;28;19924;-63
2022/08/12 07:56:08;;;;;;;;;;;;;;;-142.75;98.90;75664.91;5013102;28;20367;-63
2022/08/12 07:58:37;;;;;;;;;;;;;;;-142.75;97.63;75637.34;5012691;28;19970;-63
2022/08/12 08:01:04;;;;;;;;;;;;;;;-142.75;97.54;75601.91;5013169;28;19923;-63
2022/08/12 08:03:29;;;;;;;;;;;;;;;-142.75;96.40;75576.34;5013060;28;19913;-63
2022/08/12 08:05:55;;;;;;;;;;;;;;;-142.75;99.83;75562.56;5013012;28;20406;-63
2022/08/12 08:08:22;;;;;;;;;;;;;;;-142.75;93.46;75554.69;5018460;28;19971;-61
2022/08/12 08:10:48;;;;;;;;;;;;;;;-142.75;90.34;75531.06;5022431;28;19920;-61
2022/08/12 08:13:14;;;;;;;;;;;;;;;-142.75;93.00;75511.41;5012459;28;19917;-63
2022/08/12 08:15:39;;;;;;;;;;;;;;;-142.75;88.73;75507.47;5012616;28;19933;-63
2022/08/12 08:18:06;;;;;;;;;;;;;;;-142.75;87.31;75491.72;5016376;28;19914;-63
2022/08/12 08:20:33;;;;;;;;;;;;;;;-142.75;88.30;75474.00;5022124;28;19925;-63
2022/08/12 08:23:00;;;;;;;;;;;;;;;-142.75;86.71;75456.28;5009964;28;19913;-66
2022/08/12 08:25:31;;;;;;;;;;;;;;;-142.75;88.52;75468.09;5000102;28;19922;-63
2022/08/12 08:27:58;;;;;;;;;;;;;;;-142.75;89.84;75428.75;5021222;28;19936;-63
2022/08/12 08:30:23;;;;;;;;;;;;;;;-142.75;84.16;75416.94;5012036;28;19921;-64
2022/08/12 08:32:48;;;;;;;;;;;;;;;-142.75;84.28;75387.41;5022513;28;19986;-64
2022/08/12 08:35:13;;;;;;;;;;;;;;;-142.75;75.92;75383.47;5010817;28;19914;-64
2022/08/12 08:37:39;;;;;;;;;;;;;;;-142.75;77.70;75377.56;5010284;28;19924;-64
2022/08/12 08:42:48;;;;;;;;;;;;;;;-142.75;77.40;75322.47;5017332;28;19997;-64
2022/08/12 08:45:14;;;;;;;;;;;;;;;-142.75;76.29;75314.59;5023322;28;20358;-64
2022/08/12 08:47:43;;;;;;;;;;;;;;;-142.75;74.72;75308.69;5022200;28;19996;-64
2022/08/12 08:50:08;;;;;;;;;;;;;;;-142.75;77.52;75287.06;5012027;28;19920;-64
2022/08/12 08:52:36;;;;;;;;;;;;;;;-142.75;74.20;75285.09;5011921;28;20004;-64
2022/08/12 08:55:01;;;;;;;;;;;;;;;-142.75;72.44;75275.25;5012363;28;20011;-64
2022/08/12 08:57:26;;;;;;;;;;;;;;;-142.75;76.09;75235.88;5011854;28;20017;-64
2022/08/12 08:59:51;;;;;;;;;;;;;;;-142.75;76.01;75212.28;5012340;28;19960;-64
2022/08/12 09:02:17;;;;;;;;;;;;;;;-142.75;71.70;75186.69;5015809;28;20369;-64
2022/08/12 09:04:44;;;;;;;;;;;;;;;-142.75;69.30;75178.81;4998778;28;19940;-64
2022/08/12 09:07:11;;;;;;;;;;;;;;;-142.75;70.72;75155.22;5015819;28;19920;-64
2022/08/12 09:09:36;;;;;;;;;;;;;;;-142.75;70.32;75145.38;5016100;28;19936;-64
2022/08/12 09:15:02;;;;;;;;;;;;;;;-142.75;67.38;75143.41;4974593;28;19918;-65
2022/08/12 09:17:29;;;;;;;;;;;;;;;-142.75;72.13;75131.59;5006921;28;19929;-65
2022/08/12 09:19:54;;;;;;;;;;;;;;;-142.75;69.58;75102.06;5016231;28;19936;-65
2022/08/12 09:22:19;;;;;;;;;;;;;;;-142.75;73.23;75102.06;5016090;28;20414;-65
2022/08/12 09:24:46;;;;;;;;;;;;;;;-142.75;66.87;75068.63;5016029;28;19914;-65
2022/08/12 09:27:16;;;;;;;;;;;;;;;-142.75;68.79;75064.69;5015607;28;19914;-65
2022/08/12 09:29:41;;;;;;;;;;;;;;;-142.75;68.14;75046.97;5015920;28;20387;-65
2022/08/12 09:32:08;;;;;;;;;;;;;;;-142.75;68.71;75070.59;5015637;28;20014;-65
2022/08/12 09:34:35;;;;;;;;;;;;;;;-142.75;65.87;75029.28;4998181;28;19944;-65
2022/08/12 09:37:01;;;;;;;;;;;;;;;-142.75;65.12;75019.44;5015232;28;19917;-65
2022/08/12 09:39:26;;;;;;;;;;;;;;;-142.75;64.47;74999.75;5015721;28;19921;-65
2022/08/12 09:45:21;;;;;;;;;;;;;;;-142.75;62.08;74962.38;5015705;28;19917;-65
2022/08/12 09:47:23;;;;;;;;;;;;;;;-142.75;60.18;74954.50;5015175;28;19919;-65
2022/08/12 09:49:49;;;;;;;;;;;;;;;-142.75;59.09;74911.22;5015512;28;20350;-65
2022/08/12 09:52:14;;;;;;;;;;;;;;;-142.75;57.03;74905.31;5015398;28;20365;-65
2022/08/12 09:54:40;;;;;;;;;;;;;;;-142.75;55.92;74893.50;5015441;28;19920;-65
2022/08/12 09:57:17;;;;;;;;;;;;;;;-142.75;53.85;74873.81;5039754;22;19922;-66
2022/08/12 09:59:43;;;;;;;;;;;;;;;-142.75;52.83;74875.78;4993514;28;19976;-66
2022/08/12 10:02:11;;;;;;;;;;;;;;;-142.75;51.96;74846.28;4977565;28;20284;-68
2022/08/12 10:04:41;;;;;;;;;;;;;;;-142.75;53.83;74862.03;4995877;28;20001;-68
2022/08/12 10:07:06;;;;;;;;;;;;;;;-142.75;51.93;74822.66;4995337;28;19914;-68
2022/08/12 10:09:31;;;;;;;;;;;;;;;-142.75;53.44;74826.59;4995544;28;19921;-68
2022/08/12 10:14:43;;;;;;;;;;;;;;;-142.75;53.32;74846.28;4996205;28;20009;-67
2022/08/12 10:17:08;;;;;;;;;;;;;;;-142.75;52.59;74826.59;4995097;28;19968;-68
2022/08/12 10:19:33;;;;;;;;;;;;;;;-142.75;54.30;74806.94;4995617;28;19918;-68
2022/08/12 10:21:58;;;;;;;;;;;;;;;-142.75;52.44;74783.31;4995450;28;20379;-68
2022/08/12 10:24:23;;;;;;;;;;;;;;;-142.75;46.05;74779.38;4977604;28;19921;-68
2022/08/12 10:29:38;;;;;;;;;;;;;;;-142.75;48.78;74751.84;4995677;28;19959;-68
2022/08/12 10:32:05;;;;;;;;;;;;;;;-142.75;47.22;74714.44;4995110;28;20391;-68
2022/08/12 10:34:30;;;;;;;;;;;;;;;-142.75;42.10;74710.50;4995184;28;19944;-68
2022/08/12 10:36:59;;;;;;;;;;;;;;;-142.75;40.89;74720.34;4994716;28;20016;-69
2022/08/12 10:39:26;;;;;;;;;;;;;;;-142.75;47.68;74724.28;4995232;28;19918;-68
2022/08/12 10:44:36;;;;;;;;;;;;;;;-142.75;42.43;74730.19;4995341;28;19920;-68
2022/08/12 10:47:02;;;;;;;;;;;;;;;-142.75;46.51;74730.19;4977083;28;19929;-67
2022/08/12 10:49:30;;;;;;;;;;;;;;;-142.75;46.86;74681.00;4994807;28;20000;-68
2022/08/12 10:51:56;;;;;;;;;;;;;;;-142.75;39.45;74669.19;4977314;28;20402;-68
2022/08/12 10:54:22;;;;;;;;;;;;;;;-142.75;37.90;74655.44;4994814;28;19921;-68
2022/08/12 10:56:48;;;;;;;;;;;;;;;-142.75;39.47;74665.25;4994337;28;20379;-68
2022/08/12 10:59:14;;;;;;;;;;;;;;;-142.75;37.79;74661.31;4994489;28;19926;-68
2022/08/12 11:01:41;;;;;;;;;;;;;;;-142.75;38.30;74694.78;4994579;28;20004;-68
2022/08/12 11:04:09;;;;;;;;;;;;;;;-142.75;37.61;74643.63;4994542;28;20008;-68
2022/08/12 11:06:43;;;;;;;;;;;;;;;-142.75;37.54;74653.47;4993778;28;21279;-68
2022/08/12 11:09:08;;;;;;;;;;;;;;;-142.75;36.20;74598.38;4976949;28;20004;-68
2022/08/12 11:11:34;;;;;;;;;;;;;;;-142.75;34.04;74606.22;4994432;28;19945;-66
2022/08/12 11:13:59;;;;;;;;;;;;;;;-142.75;36.72;74594.44;4994477;28;19976;-67
2022/08/12 11:16:26;;;;;;;;;;;;;;;-142.75;32.37;74555.09;4994170;28;20273;-66
2022/08/12 11:18:51;;;;;;;;;;;;;;;-142.75;35.79;74657.38;4994056;28;19924;-67
2022/08/12 11:21:17;;;;;;;;;;;;;;;-142.75;33.75;74612.13;4994294;28;19913;-66
2022/08/12 11:23:42;;;;;;;;;;;;;;;-142.75;36.00;74539.34;4993664;28;20405;-66
2022/08/12 11:26:07;;;;;;;;;;;;;;;-142.75;38.96;74557.03;4994221;28;19920;-66
2022/08/12 11:28:33;;;;;;;;;;;;;;;-142.75;31.04;74525.56;4993796;28;20303;-71
2022/08/12 11:30:58;;;;;;;;;;;;;;;-142.75;36.00;74618.03;4993973;28;19920;-72
2022/08/12 11:33:23;;;;;;;;;;;;;;;-142.75;35.49;74592.47;4993997;28;19920;-72
2022/08/12 11:35:48;;;;;;;;;;;;;;;-142.75;36.29;74553.13;4976585;28;19921;-72
2022/08/12 11:38:14;;;;;;;;;;;;;;;-142.75;30.27;74545.25;4993593;28;19914;-72
2022/08/12 11:40:39;;;;;;;;;;;;;;;-142.75;30.21;74598.38;4993926;28;19913;-71
2022/08/12 11:43:05;;;;;;;;;;;;;;;-142.75;30.55;74614.09;4990621;28;19925;-72
2022/08/12 11:45:30;;;;;;;;;;;;;;;-142.75;30.83;74706.59;4982580;28;20034;-71
2022/08/12 11:47:56;;;;;;;;;;;;;;;-142.75;30.72;74673.13;4983772;28;19920;-71
2022/08/12 11:50:21;;;;;;;;;;;;;;;-142.75;32.38;74620.00;4979566;28;19917;-70
2022/08/12 11:52:47;;;;;;;;;;;;;;;-142.75;31.50;74635.75;4974650;28;19914;-71
2022/08/12 11:55:13;;;;;;;;;;;;;;;-142.75;31.98;74631.81;4974195;28;19927;-70
2022/08/12 11:57:49;;;;;;;;;;;;;;;-142.75;30.43;74653.47;4973719;28;20065;-71
2022/08/12 12:00:14;;;;;;;;;;;;;;;-142.75;30.18;74621.97;4973836;28;19922;-71
2022/08/12 12:02:39;;;;;;;;;;;;;;;-142.75;31.08;74631.81;4974114;28;20380;-68
2022/08/12 12:05:05;;;;;;;;;;;;;;;-142.75;36.25;74618.03;4974083;28;19921;-71
2022/08/12 12:07:30;;;;;;;;;;;;;;;-142.75;30.06;74590.50;4974985;28;19914;-68
2022/08/12 12:09:56;;;;;;;;;;;;;;;-142.75;30.56;74574.75;4961280;28;19914;-70
2022/08/12 12:12:22;;;;;;;;;;;;;;;-142.75;29.40;74590.50;4978741;28;20005;-69
2022/08/12 12:14:47;;;;;;;;;;;;;;;-142.75;30.81;74566.88;4957827;28;19924;-70
2022/08/12 12:17:13;;;;;;;;;;;;;;;-142.75;29.15;74612.13;4973351;28;19925;-67
2022/08/12 12:19:38;;;;;;;;;;;;;;;-142.75;29.91;74637.72;4974053;28;19914;-67
2022/08/12 12:22:03;;;;;;;;;;;;;;;-142.75;30.83;74639.69;4973701;28;19961;-71
2022/08/12 12:24:29;;;;;;;;;;;;;;;-142.75;30.35;74651.50;4981802;28;19953;-69
2022/08/12 12:26:54;;;;;;;;;;;;;;;-142.75;30.62;74649.53;4974589;28;19922;-69
2022/08/12 12:29:19;;;;;;;;;;;;;;;-142.75;29.53;74602.31;4972355;28;19920;-69
2022/08/12 12:31:44;;;;;;;;;;;;;;;-142.75;29.16;74582.63;4973733;28;19914;-69
2022/08/12 12:34:09;;;;;;;;;;;;;;;-142.75;32.54;74576.72;4972699;28;19914;-69
2022/08/12 12:36:34;;;;;;;;;;;;;;;-142.75;28.75;74541.31;4955233;28;19918;-67
2022/08/12 12:39:00;;;;;;;;;;;;;;;-142.75;28.78;74511.78;4972103;28;19921;-70
2022/08/12 12:41:25;;;;;;;;;;;;;;;-142.75;29.51;74496.06;4973621;28;20001;-66
2022/08/12 12:43:50;;;;;;;;;;;;;;;-142.75;29.10;74501.97;4973428;28;19918;-70
2022/08/12 12:46:16;;;;;;;;;;;;;;;-142.75;29.84;74547.22;4956141;28;19914;-69
2022/08/12 12:48:41;;;;;;;;;;;;;;;-142.75;30.10;74513.75;4973107;28;19925;-68
2022/08/12 12:51:16;;;;;;;;;;;;;;;-142.75;29.58;74582.63;4973412;28;19914;-69
2022/08/12 12:53:43;;;;;;;;;;;;;;;-142.75;30.59;74582.63;4956115;28;19925;-69
2022/08/12 12:56:14;;;;;;;;;;;;;;;-142.75;29.71;74580.66;4973374;28;20013;-69
2022/08/12 12:58:41;;;;;;;;;;;;;;;-142.75;29.44;74507.88;4972902;28;20061;-69
2022/08/12 13:01:06;;;;;;;;;;;;;;;-142.75;29.34;74531.47;4973438;28;19914;-70
2022/08/12 13:03:34;;;;;;;;;;;;;;;-142.75;30.78;74496.06;4973440;28;20430;-70
2022/08/12 13:05:59;;;;;;;;;;;;;;;-142.75;30.28;74511.78;4973474;28;19969;-68
2022/08/12 13:08:25;;;;;;;;;;;;;;;-142.75;29.33;74529.50;4980743;28;19925;-69
2022/08/12 13:10:54;;;;;;;;;;;;;;;-142.75;30.26;74651.50;4992664;28;19921;-70
2022/08/12 13:13:20;;;;;;;;;;;;;;;-142.75;30.28;74582.63;4992632;28;19920;-67
2022/08/12 13:15:48;;;;;;;;;;;;;;;-142.75;30.64;74529.50;4975061;28;20012;-70
2022/08/12 13:18:14;;;;;;;;;;;;;;;-142.75;30.78;74560.97;4992209;28;19921;-69
2022/08/12 13:20:42;;;;;;;;;;;;;;;-142.75;30.17;74555.09;4992535;28;19913;-68
2022/08/12 13:23:07;;;;;;;;;;;;;;;-142.75;31.40;74547.22;4975154;28;19914;-69
2022/08/12 13:25:32;;;;;;;;;;;;;;;-142.75;31.48;74651.50;4992777;28;19918;-67
2022/08/12 13:27:58;;;;;;;;;;;;;;;-142.75;30.30;74618.03;4992187;28;19913;-69
2022/08/12 13:30:24;;;;;;;;;;;;;;;-142.75;30.82;74578.69;4992548;28;20010;-69
2022/08/12 13:32:54;;;;;;;;;;;;;;;-142.75;30.30;74598.38;4992462;28;19920;-70
2022/08/12 13:35:19;;;;;;;;;;;;;;;-142.75;29.57;74645.59;4975011;28;19913;-69
2022/08/12 13:37:52;;;;;;;;;;;;;;;-142.75;32.48;74651.50;4986655;28;20303;-69
2022/08/12 13:40:19;;;;;;;;;;;;;;;-142.75;31.43;74661.31;4973139;28;20305;-69
2022/08/12 13:42:47;;;;;;;;;;;;;;;-142.75;34.44;74700.69;4955686;28;20395;-70
2022/08/12 13:45:14;;;;;;;;;;;;;;;-142.75;32.15;74677.06;4972957;28;20299;-69
2022/08/12 13:47:55;;;;;;;;;;;;;;;-142.75;33.96;74625.91;4974746;28;19921;-69
2022/08/12 13:50:31;;;;;;;;;;;;;;;-142.75;32.01;74653.47;4976494;28;19972;-69
2022/08/12 13:53:00;;;;;;;;;;;;;;;-142.75;31.24;74669.19;4976591;28;20022;-70
2022/08/12 13:55:26;;;;;;;;;;;;;;;-142.75;33.13;74675.09;4976465;28;19914;-69
2022/08/12 13:57:52;;;;;;;;;;;;;;;-142.75;31.25;74704.63;4975891;28;19926;-69
2022/08/12 14:00:17;;;;;;;;;;;;;;;-142.75;33.17;74736.09;4976332;28;20403;-69
2022/08/12 14:02:43;;;;;;;;;;;;;;;-142.75;32.79;74722.31;4958998;28;20340;-69